Time;durP1;ratioP1;P1;durP2;ratioP2;P2;SDS_P1;SDS_P2;PMS_P1;PMS_P2;Temp;Humidity;BMP_temperature;BMP_pressure;BME280_temperature;BME280_humidity;BME280_pressure;Samples;Min_cycle;Max_cycle;Signal;HPM_P1;HPM_P2
2022/10/31 05:06:20;;;;;;;;;;;;;;;16.20;81.19;97300.19;4180657;28;11393;-68
2022/10/31 05:08:23;;;;;;;;;;;;;;;16.47;80.27;97306.13;4174672;28;5742;-68
2022/10/31 05:10:28;;;;;;;;;;;;;;;16.70;79.69;97305.56;4176026;28;5756;-68
2022/10/31 05:12:30;;;;;;;;;;;;;;;16.87;79.32;97302.13;4179095;28;6367;-68
2022/10/31 05:14:33;;;;;;;;;;;;;;;17.02;79.14;97306.28;4176989;28;5093;-68
2022/10/31 05:16:36;;;;;;;;;;;;;;;17.13;78.59;97310.91;4171297;28;5729;-68
2022/10/31 05:18:39;;;;;;;;;;;;;;;17.24;78.29;97306.66;4177893;28;5744;-68
2022/10/31 05:20:41;;;;;;;;;;;;;;;17.30;78.04;97303.91;4179919;28;5741;-68
2022/10/31 05:22:47;;;;;;;;;;;;;;;17.36;77.88;97297.69;4179417;28;5979;-68
2022/10/31 05:24:49;;;;;;;;;;;;;;;17.42;77.54;97303.97;4173203;28;5823;-68
2022/10/31 05:26:52;;;;;;;;;;;;;;;17.46;77.57;97295.28;4178743;28;5726;-68
2022/10/31 05:28:55;;;;;;;;;;;;;;;17.50;77.32;97295.66;4180273;28;5863;-68
2022/10/31 05:30:58;;;;;;;;;;;;;;;17.53;77.13;97291.72;4174726;28;5733;-68
2022/10/31 05:33:01;;;;;;;;;;;;;;;17.54;76.76;97291.47;4175801;28;5745;-68
2022/10/31 05:35:07;;;;;;;;;;;;;;;17.55;76.81;97285.09;4176048;28;5831;-68
2022/10/31 05:37:10;;;;;;;;;;;;;;;17.57;76.72;97291.06;4170856;28;5841;-69
2022/10/31 05:39:14;;;;;;;;;;;;;;;17.58;76.57;97290.00;4168902;28;5728;-69
2022/10/31 05:41:17;;;;;;;;;;;;;;;17.60;76.55;97290.59;4168385;28;5750;-69
2022/10/31 05:43:20;;;;;;;;;;;;;;;17.59;76.59;97280.13;4171962;28;6071;-69
2022/10/31 05:45:23;;;;;;;;;;;;;;;17.59;76.04;97277.47;4168694;28;7773;-69
2022/10/31 05:47:26;;;;;;;;;;;;;;;17.60;76.37;97279.91;4172283;28;6113;-69
2022/10/31 05:49:29;;;;;;;;;;;;;;;17.61;76.04;97275.38;4174089;28;7806;-69
2022/10/31 05:51:31;;;;;;;;;;;;;;;17.61;75.97;97281.53;4177782;28;5851;-69
2022/10/31 05:53:34;;;;;;;;;;;;;;;17.61;75.96;97280.72;4175847;28;5836;-69
2022/10/31 05:55:40;;;;;;;;;;;;;;;17.61;75.68;97286.06;4175515;28;6016;-69
2022/10/31 05:57:43;;;;;;;;;;;;;;;17.60;75.94;97281.75;4174783;28;5101;-69
2022/10/31 05:59:47;;;;;;;;;;;;;;;17.63;75.76;97290.13;4170264;28;5745;-69
2022/10/31 06:01:56;;;;;;;;;;;;;;;17.62;75.49;97287.69;4171546;28;5824;-69
2022/10/31 06:03:59;;;;;;;;;;;;;;;17.61;75.48;97286.88;4166955;28;5912;-68
2022/10/31 06:06:02;;;;;;;;;;;;;;;17.61;75.25;97291.41;4168949;28;5888;-69
2022/10/31 06:08:05;;;;;;;;;;;;;;;17.60;75.31;97289.78;4160846;28;5770;-69
2022/10/31 06:10:10;;;;;;;;;;;;;;;17.58;75.11;97292.69;4165209;28;6593;-69
2022/10/31 06:12:14;;;;;;;;;;;;;;;17.59;75.18;97290.81;4167243;28;5721;-69
2022/10/31 06:14:16;;;;;;;;;;;;;;;17.59;74.88;97296.16;4158395;28;5916;-69
2022/10/31 06:16:19;;;;;;;;;;;;;;;17.59;74.79;97290.81;4166256;28;5729;-69
2022/10/31 06:18:22;;;;;;;;;;;;;;;17.58;74.54;97292.69;4166342;28;5753;-69
2022/10/31 06:20:25;;;;;;;;;;;;;;;17.58;74.77;97297.22;4165500;28;5869;-69
2022/10/31 06:22:28;;;;;;;;;;;;;;;17.58;74.70;97302.56;4159125;28;5740;-69
2022/10/31 06:24:30;;;;;;;;;;;;;;;17.57;74.52;97296.41;4157228;28;5831;-78
2022/10/31 06:26:33;;;;;;;;;;;;;;;17.57;74.57;97298.25;4163026;28;5831;-78
2022/10/31 06:28:38;;;;;;;;;;;;;;;17.57;74.61;97300.94;4156936;28;5815;-78
2022/10/31 06:30:40;;;;;;;;;;;;;;;17.57;74.36;97300.94;4160588;28;5753;-78
2022/10/31 06:32:43;;;;;;;;;;;;;;;17.57;74.29;97299.06;4169579;28;5733;-78
2022/10/31 06:34:47;;;;;;;;;;;;;;;17.58;74.31;97299.88;4166235;28;5725;-78
2022/10/31 06:36:50;;;;;;;;;;;;;;;17.58;74.04;97295.34;4170260;28;5753;-78
2022/10/31 06:38:53;;;;;;;;;;;;;;;17.60;74.09;97297.81;4164401;28;5828;-79
2022/10/31 06:40:56;;;;;;;;;;;;;;;17.60;74.02;97297.81;4167214;28;5923;-79
2022/10/31 06:43:00;;;;;;;;;;;;;;;17.60;73.70;97303.16;4170462;28;5840;-79
2022/10/31 06:45:04;;;;;;;;;;;;;;;17.60;73.91;97305.81;4162969;28;5823;-79
2022/10/31 06:47:07;;;;;;;;;;;;;;;17.61;73.93;97310.13;4170589;28;5871;-79
2022/10/31 06:49:10;;;;;;;;;;;;;;;17.63;73.82;97313.38;4168167;28;5804;-79
2022/10/31 06:51:12;;;;;;;;;;;;;;;17.65;73.73;97319.31;4166247;28;5766;-79
2022/10/31 06:53:15;;;;;;;;;;;;;;;17.67;73.61;97322.59;4158010;28;5847;-79
2022/10/31 06:55:20;;;;;;;;;;;;;;;17.68;73.39;97322.38;4168385;28;5776;-79
2022/10/31 06:57:23;;;;;;;;;;;;;;;17.69;73.32;97331.25;4166933;28;5766;-79
2022/10/31 06:59:26;;;;;;;;;;;;;;;17.69;73.21;97336.59;4157074;28;5748;-79
2022/10/31 07:01:30;;;;;;;;;;;;;;;17.70;73.21;97331.00;4183136;28;5754;-79
2022/10/31 07:03:33;;;;;;;;;;;;;;;17.70;73.36;97328.34;4165464;28;6696;-79
2022/10/31 07:05:37;;;;;;;;;;;;;;;17.72;73.19;97325.44;4156331;28;5862;-79
2022/10/31 07:07:40;;;;;;;;;;;;;;;17.73;72.99;97335.09;4170164;28;5807;-79
2022/10/31 07:09:44;;;;;;;;;;;;;;;17.73;72.94;97337.75;4169516;28;5757;-79
2022/10/31 07:11:52;;;;;;;;;;;;;;;17.75;72.88;97335.69;4169161;28;5749;-78
2022/10/31 07:13:55;;;;;;;;;;;;;;;17.76;73.10;97331.97;4169440;28;5841;-79
2022/10/31 07:16:02;;;;;;;;;;;;;;;17.79;72.98;97326.19;4169546;28;5734;-79
2022/10/31 07:18:08;;;;;;;;;;;;;;;17.81;72.81;97328.63;4167574;28;5761;-80
2022/10/31 07:20:11;;;;;;;;;;;;;;;17.81;72.64;97323.28;4163921;28;6568;-80
2022/10/31 07:22:15;;;;;;;;;;;;;;;17.82;72.68;97325.72;4156986;28;5845;-80
2022/10/31 07:24:18;;;;;;;;;;;;;;;17.82;72.70;97331.06;4168412;28;5753;-80
2022/10/31 07:26:21;;;;;;;;;;;;;;;17.82;72.55;97336.41;4169209;28;5804;-80
2022/10/31 07:28:25;;;;;;;;;;;;;;;17.84;72.59;97341.53;4160047;28;5773;-81
2022/10/31 07:30:28;;;;;;;;;;;;;;;17.86;72.34;97342.94;4161921;28;5737;-80
2022/10/31 07:32:38;;;;;;;;;;;;;;;17.86;72.64;97342.94;4161978;28;5761;-81
2022/10/31 07:34:43;;;;;;;;;;;;;;;17.89;72.30;97345.16;4163485;28;5772;-80
2022/10/31 07:36:51;;;;;;;;;;;;;;;17.91;72.02;97347.63;4162028;28;5717;-81
2022/10/31 07:38:54;;;;;;;;;;;;;;;17.92;71.92;97352.75;4168894;28;5728;-80
2022/10/31 07:40:57;;;;;;;;;;;;;;;17.93;72.21;97351.69;4168935;28;5737;-81
2022/10/31 07:43:00;;;;;;;;;;;;;;;17.95;71.92;97360.31;4165114;28;5922;-80
2022/10/31 07:45:03;;;;;;;;;;;;;;;17.97;71.94;97354.72;4166911;28;5827;-80
2022/10/31 07:47:06;;;;;;;;;;;;;;;17.98;71.82;97353.69;4164523;28;5809;-80
2022/10/31 07:49:09;;;;;;;;;;;;;;;17.99;72.03;97353.47;4152502;28;5750;-80
2022/10/31 07:51:13;;;;;;;;;;;;;;;18.00;71.65;97355.09;4167789;28;5917;-81
2022/10/31 07:53:16;;;;;;;;;;;;;;;18.00;71.85;97357.75;4152851;28;5079;-80
2022/10/31 07:55:21;;;;;;;;;;;;;;;18.02;71.53;97366.41;4152601;28;5820;-80
2022/10/31 07:57:24;;;;;;;;;;;;;;;18.00;71.96;97368.47;4161591;28;5740;-80
2022/10/31 07:59:32;;;;;;;;;;;;;;;18.03;71.58;97364.53;4165882;28;5736;-80
2022/10/31 08:01:35;;;;;;;;;;;;;;;18.01;71.25;97356.75;4167482;28;5097;-80
2022/10/31 08:03:38;;;;;;;;;;;;;;;18.02;71.48;97347.69;4156263;28;5856;-80
2022/10/31 08:05:42;;;;;;;;;;;;;;;18.01;71.08;97343.38;4151099;28;5861;-80
2022/10/31 08:07:46;;;;;;;;;;;;;;;18.00;71.29;97336.34;4164640;28;5827;-80
2022/10/31 08:09:48;;;;;;;;;;;;;;;18.02;71.33;97336.97;4164800;28;5741;-80
2022/10/31 08:11:51;;;;;;;;;;;;;;;18.02;71.33;97341.50;4166179;28;5764;-80
2022/10/31 08:13:55;;;;;;;;;;;;;;;18.05;70.98;97341.06;4165465;28;5843;-80
2022/10/31 08:16:03;;;;;;;;;;;;;;;18.07;70.85;97341.63;4165900;28;5840;-81
2022/10/31 08:18:06;;;;;;;;;;;;;;;18.09;71.20;97336.06;4167085;28;5724;-81
2022/10/31 08:20:10;;;;;;;;;;;;;;;18.12;70.93;97335.59;4168892;28;5803;-81
2022/10/31 08:22:14;;;;;;;;;;;;;;;18.14;70.99;97333.53;4169039;28;5736;-80
2022/10/31 08:24:22;;;;;;;;;;;;;;;18.17;70.50;97328.53;4167938;28;5811;-81
2022/10/31 08:26:25;;;;;;;;;;;;;;;18.20;70.62;97322.72;4168308;28;5800;-81
2022/10/31 08:28:28;;;;;;;;;;;;;;;18.23;70.65;97318.75;4168110;28;6714;-80
2022/10/31 08:30:34;;;;;;;;;;;;;;;18.23;70.43;97308.91;4160904;28;5769;-81
2022/10/31 08:32:38;;;;;;;;;;;;;;;18.24;70.36;97315.06;4168667;28;5749;-81
2022/10/31 08:34:41;;;;;;;;;;;;;;;18.27;70.50;97306.56;4168426;28;5737;-81
2022/10/31 08:36:45;;;;;;;;;;;;;;;18.31;70.41;97305.03;4167281;28;5735;-82
2022/10/31 08:38:49;;;;;;;;;;;;;;;18.30;70.46;97301.56;4167986;28;5769;-79
2022/10/31 08:41:04;;;;;;;;;;;;;;;18.32;70.38;97307.50;4165892;28;5914;-78
2022/10/31 08:43:14;;;;;;;;;;;;;;;18.34;70.26;97304.59;4151089;28;5896;-78
2022/10/31 08:45:17;;;;;;;;;;;;;;;18.36;70.11;97304.38;4162819;28;5970;-81
2022/10/31 08:47:22;;;;;;;;;;;;;;;18.39;70.15;97302.03;4164296;28;5819;-79
2022/10/31 08:49:27;;;;;;;;;;;;;;;18.40;70.12;97292.16;4155577;28;5838;-79
2022/10/31 08:51:30;;;;;;;;;;;;;;;18.41;69.93;97281.22;4160196;28;5752;-78
2022/10/31 08:53:33;;;;;;;;;;;;;;;18.40;70.08;97284.13;4168137;28;5838;-79
2022/10/31 08:55:37;;;;;;;;;;;;;;;18.41;70.00;97285.75;4168214;28;5816;-78
2022/10/31 08:57:42;;;;;;;;;;;;;;;18.41;69.85;97285.75;4154313;28;5759;-80
2022/10/31 08:59:45;;;;;;;;;;;;;;;18.40;70.02;97290.28;4165884;28;5752;-79
2022/10/31 09:01:48;;;;;;;;;;;;;;;18.38;70.11;97295.06;4168637;28;5745;-79
2022/10/31 09:03:51;;;;;;;;;;;;;;;18.37;69.82;97296.13;4157180;28;6944;-79
2022/10/31 09:05:57;;;;;;;;;;;;;;;18.36;69.93;97286.47;4151699;28;5762;-79
2022/10/31 09:08:04;;;;;;;;;;;;;;;18.36;69.82;97285.66;4163998;28;5717;-79
2022/10/31 09:10:07;;;;;;;;;;;;;;;18.36;69.97;97281.09;4168002;28;5816;-79
2022/10/31 09:12:10;;;;;;;;;;;;;;;18.36;69.62;97280.28;4165930;28;5956;-79
2022/10/31 09:14:15;;;;;;;;;;;;;;;18.34;69.83;97275.94;4162896;28;5888;-79
2022/10/31 09:16:18;;;;;;;;;;;;;;;18.34;69.77;97275.13;4154985;28;5823;-79
2022/10/31 09:18:22;;;;;;;;;;;;;;;18.35;69.88;97282.16;4151475;28;5770;-79
2022/10/31 09:20:27;;;;;;;;;;;;;;;18.36;69.74;97280.28;4151816;28;5754;-79
2022/10/31 09:22:30;;;;;;;;;;;;;;;18.37;69.65;97279.25;4173051;28;5756;-79
2022/10/31 09:24:33;;;;;;;;;;;;;;;18.36;69.58;97278.44;4168259;28;5792;-78
2022/10/31 09:26:37;;;;;;;;;;;;;;;18.36;69.73;97272.25;4166122;28;5744;-78
2022/10/31 09:28:40;;;;;;;;;;;;;;;18.36;69.62;97275.75;4162317;28;5969;-78
2022/10/31 09:30:47;;;;;;;;;;;;;;;18.36;69.86;97283.78;4166033;28;5740;-79
2022/10/31 09:32:56;;;;;;;;;;;;;;;18.37;69.47;97273.88;4167423;28;5824;-79
2022/10/31 09:35:00;;;;;;;;;;;;;;;18.37;69.66;97280.06;4166774;28;6479;-79
2022/10/31 09:37:03;;;;;;;;;;;;;;;18.36;69.63;97273.06;4167386;28;5934;-79
2022/10/31 09:39:07;;;;;;;;;;;;;;;18.36;69.70;97273.06;4167369;28;5752;-79
2022/10/31 09:41:22;;;;;;;;;;;;;;;18.34;69.43;97265.25;4164775;28;5909;-79
2022/10/31 09:43:33;;;;;;;;;;;;;;;18.34;69.42;97259.06;4170177;28;5744;-79
2022/10/31 09:45:42;;;;;;;;;;;;;;;18.35;69.66;97266.09;4171068;28;5772;-79
2022/10/31 09:47:58;;;;;;;;;;;;;;;18.37;69.53;97258.63;4169872;28;5737;-80
2022/10/31 09:50:18;;;;;;;;;;;;;;;18.37;69.53;97263.19;4165839;28;5761;-79
2022/10/31 09:52:24;;;;;;;;;;;;;;;18.37;69.72;97245.25;4155156;28;5962;-79
2022/10/31 09:54:33;;;;;;;;;;;;;;;18.38;69.60;97240.72;4180997;28;5824;-79
2022/10/31 09:56:36;;;;;;;;;;;;;;;18.40;69.34;97243.97;4170436;28;6422;-78
2022/10/31 09:58:44;;;;;;;;;;;;;;;18.41;69.32;97246.41;4170144;28;5848;-79
2022/10/31 10:00:48;;;;;;;;;;;;;;;18.44;69.36;97242.44;4167251;28;5766;-80
2022/10/31 10:02:57;;;;;;;;;;;;;;;18.44;69.42;97243.25;4154888;28;5751;-79
2022/10/31 10:05:03;;;;;;;;;;;;;;;18.46;69.11;97241.19;4161878;28;5881;-79
2022/10/31 10:07:17;;;;;;;;;;;;;;;18.46;69.08;97241.19;4154577;28;5817;-79
2022/10/31 10:09:26;;;;;;;;;;;;;;;18.46;69.34;97241.19;4155224;28;5746;-79
2022/10/31 10:11:43;;;;;;;;;;;;;;;18.45;69.18;97238.72;4169086;28;5745;-78
2022/10/31 10:13:58;;;;;;;;;;;;;;;18.45;69.38;97244.06;4169333;28;5737;-79
2022/10/31 10:16:22;;;;;;;;;;;;;;;18.46;69.24;97238.53;4161803;28;5753;-79
2022/10/31 10:18:39;;;;;;;;;;;;;;;18.46;69.37;97237.69;4158204;28;5812;-79
2022/10/31 10:20:55;;;;;;;;;;;;;;;18.47;69.28;97247.38;4169321;28;5921;-79
2022/10/31 10:23:23;;;;;;;;;;;;;;;18.49;69.17;97251.44;4170610;28;6545;-79
2022/10/31 10:25:34;;;;;;;;;;;;;;;18.48;69.06;97249.81;4169500;28;5812;-79
2022/10/31 10:27:50;;;;;;;;;;;;;;;18.48;69.10;97255.16;4169835;28;5725;-79
2022/10/31 10:30:02;;;;;;;;;;;;;;;18.48;69.19;97249.81;4170041;28;5875;-79
2022/10/31 10:32:12;;;;;;;;;;;;;;;18.49;69.13;97253.28;4169735;28;5808;-78
2022/10/31 10:34:21;;;;;;;;;;;;;;;18.48;69.11;97254.34;4170682;28;5752;-79
2022/10/31 10:36:30;;;;;;;;;;;;;;;18.51;69.08;97245.84;4170052;28;5853;-79
2022/10/31 10:38:38;;;;;;;;;;;;;;;18.52;69.03;97239.44;4169261;28;6584;-79
2022/10/31 10:40:42;;;;;;;;;;;;;;;18.54;69.18;97232.78;4169989;28;5757;-79
2022/10/31 10:47:43;;;;;;;;;;;;;;;18.60;68.89;97225.72;4169584;28;7838;-79
2022/10/31 10:49:51;;;;;;;;;;;;;;;18.63;68.95;97228.72;4169678;28;5808;-79
2022/10/31 10:51:59;;;;;;;;;;;;;;;18.66;69.03;97234.69;4170239;28;5819;-80
2022/10/31 10:54:40;;;;;;;;;;;;;;;18.69;68.94;97235.06;4167947;28;5753;-79
2022/10/31 10:56:55;;;;;;;;;;;;;;;18.71;68.61;97232.16;4167194;28;5733;-76
2022/10/31 10:58:58;;;;;;;;;;;;;;;18.71;68.55;97227.59;4157973;28;5783;-76
2022/10/31 11:01:01;;;;;;;;;;;;;;;18.72;68.58;97220.38;4164030;28;5886;-71
2022/10/31 11:03:05;;;;;;;;;;;;;;;18.69;68.74;97208.28;4164398;28;5738;-72
2022/10/31 11:05:20;;;;;;;;;;;;;;;18.68;68.67;97195.91;4168377;28;5811;-72
2022/10/31 11:07:23;;;;;;;;;;;;;;;18.70;68.86;97206.41;4165492;28;6404;-71
2022/10/31 11:09:26;;;;;;;;;;;;;;;18.69;68.61;97208.28;4168967;28;5717;-71
2022/10/31 11:11:31;;;;;;;;;;;;;;;18.68;68.54;97201.25;4168494;28;6356;-71
2022/10/31 11:13:36;;;;;;;;;;;;;;;18.72;68.53;97196.28;4167545;28;5851;-71
2022/10/31 11:15:54;;;;;;;;;;;;;;;18.73;68.66;97195.22;4168272;28;6463;-71
2022/10/31 11:17:58;;;;;;;;;;;;;;;18.75;68.57;97201.16;4168183;28;5816;-71
2022/10/31 11:20:04;;;;;;;;;;;;;;;18.72;68.44;97196.28;4168253;28;5725;-71
2022/10/31 11:22:15;;;;;;;;;;;;;;;18.72;68.82;97201.63;4167830;28;5930;-71
2022/10/31 11:24:20;;;;;;;;;;;;;;;18.72;68.84;97185.56;4167411;28;5745;-71
2022/10/31 11:26:23;;;;;;;;;;;;;;;18.73;68.60;97184.50;4167878;28;5725;-71
2022/10/31 11:28:26;;;;;;;;;;;;;;;18.73;68.46;97182.66;4166775;28;5745;-71
2022/10/31 11:30:30;;;;;;;;;;;;;;;18.76;68.36;97176.81;4157655;28;5766;-71
2022/10/31 11:32:33;;;;;;;;;;;;;;;18.78;68.37;97174.69;4162426;28;5895;-71
2022/10/31 11:34:42;;;;;;;;;;;;;;;18.80;68.73;97169.09;4162636;28;5729;-71
2022/10/31 11:36:46;;;;;;;;;;;;;;;18.83;68.23;97169.47;4168389;28;5752;-71
2022/10/31 11:38:52;;;;;;;;;;;;;;;18.84;68.43;97167.59;4164781;28;6434;-72
2022/10/31 11:40:58;;;;;;;;;;;;;;;18.83;68.35;97165.97;4166474;28;5808;-72
2022/10/31 11:43:01;;;;;;;;;;;;;;;18.84;68.53;97156.88;4165030;28;5804;-72
2022/10/31 11:45:14;;;;;;;;;;;;;;;18.85;68.26;97148.63;4165386;28;5843;-71
2022/10/31 11:47:22;;;;;;;;;;;;;;;18.87;68.46;97151.88;4159172;28;5740;-71
2022/10/31 11:49:30;;;;;;;;;;;;;;;18.88;68.10;97147.31;4164824;28;5952;-74
2022/10/31 11:51:35;;;;;;;;;;;;;;;18.88;68.39;97148.13;4162369;28;5915;-75
2022/10/31 11:53:53;;;;;;;;;;;;;;;18.89;68.36;97143.59;4155692;28;5757;-75
2022/10/31 11:56:11;;;;;;;;;;;;;;;18.90;68.29;97145.22;4161992;28;5809;-75
2022/10/31 11:58:25;;;;;;;;;;;;;;;18.88;68.12;97150.00;4159921;28;5964;-75
2022/10/31 12:00:30;;;;;;;;;;;;;;;18.89;67.94;97144.41;4159781;28;5748;-75
2022/10/31 12:02:33;;;;;;;;;;;;;;;18.88;68.05;97142.78;4156133;28;5939;-75
2022/10/31 12:04:44;;;;;;;;;;;;;;;18.89;68.10;97127.50;4165026;28;5823;-75
2022/10/31 12:06:49;;;;;;;;;;;;;;;18.91;68.02;97133.44;4162522;28;5770;-75
2022/10/31 12:08:54;;;;;;;;;;;;;;;18.90;68.17;97129.94;4168938;28;5725;-75
2022/10/31 12:11:06;;;;;;;;;;;;;;;18.89;67.76;97135.56;4164537;28;5740;-75
2022/10/31 12:13:25;;;;;;;;;;;;;;;18.89;67.87;97122.16;4166544;28;5761;-75
2022/10/31 12:15:33;;;;;;;;;;;;;;;18.89;67.84;97116.81;4163425;28;5753;-75
2022/10/31 12:17:51;;;;;;;;;;;;;;;18.86;67.81;97112.75;4166982;28;6535;-75
2022/10/31 12:20:06;;;;;;;;;;;;;;;18.88;67.78;97107.13;4165642;28;5729;-74
2022/10/31 12:22:21;;;;;;;;;;;;;;;18.86;67.94;97107.38;4167015;28;6447;-75
2022/10/31 12:24:39;;;;;;;;;;;;;;;18.86;67.82;97101.22;4160461;28;5726;-74
2022/10/31 12:26:51;;;;;;;;;;;;;;;18.85;68.04;97103.06;4166566;28;5935;-73
2022/10/31 12:29:15;;;;;;;;;;;;;;;18.85;68.05;97108.44;4166126;28;5717;-73
2022/10/31 12:31:42;;;;;;;;;;;;;;;18.86;67.99;97112.75;4162338;28;5793;-73
2022/10/31 12:33:57;;;;;;;;;;;;;;;18.83;67.89;97107.06;4162504;28;5923;-73
2022/10/31 12:36:15;;;;;;;;;;;;;;;18.84;68.06;97106.00;4162703;28;5931;-73
2022/10/31 12:38:52;;;;;;;;;;;;;;;18.82;67.65;97095.53;4166482;28;5760;-73
2022/10/31 12:41:32;;;;;;;;;;;;;;;18.84;67.80;97097.97;4166793;28;5956;-72
2022/10/31 12:43:44;;;;;;;;;;;;;;;18.84;67.76;97088.06;4161598;28;7744;-73
2022/10/31 12:45:55;;;;;;;;;;;;;;;18.85;67.49;97088.88;4159233;28;5738;-73
2022/10/31 12:48:12;;;;;;;;;;;;;;;18.84;67.80;97073.84;4167263;28;5833;-72
2022/10/31 12:50:34;;;;;;;;;;;;;;;18.82;67.74;97063.38;4167399;28;7771;-72
2022/10/31 12:52:49;;;;;;;;;;;;;;;18.82;67.53;97063.38;4167295;28;5831;-73
2022/10/31 12:55:10;;;;;;;;;;;;;;;18.81;67.22;97067.13;4164976;28;5740;-73
2022/10/31 12:57:24;;;;;;;;;;;;;;;18.82;67.36;97062.56;4161207;28;5879;-73
2022/10/31 12:59:33;;;;;;;;;;;;;;;18.85;67.06;97062.09;4162690;28;5835;-73
2022/10/31 13:01:41;;;;;;;;;;;;;;;18.86;67.11;97053.81;4161786;28;5734;-73
2022/10/31 13:03:52;;;;;;;;;;;;;;;18.87;67.12;97055.44;4162068;28;6430;-73
2022/10/31 13:05:59;;;;;;;;;;;;;;;18.87;67.04;97050.06;4164561;28;5823;-73
2022/10/31 13:08:07;;;;;;;;;;;;;;;18.87;66.67;97044.72;4165804;28;5741;-73
2022/10/31 13:10:19;;;;;;;;;;;;;;;18.86;66.49;97034.25;4159910;28;5117;-73
2022/10/31 13:12:24;;;;;;;;;;;;;;;18.84;66.44;97039.84;4165570;28;5748;-73
2022/10/31 13:14:35;;;;;;;;;;;;;;;18.84;66.18;97033.69;4166764;28;5733;-73
2022/10/31 13:16:40;;;;;;;;;;;;;;;18.86;66.11;97042.28;4161471;28;5746;-73
2022/10/31 13:18:48;;;;;;;;;;;;;;;18.86;66.03;97034.25;4163983;28;5988;-73
2022/10/31 13:20:52;;;;;;;;;;;;;;;18.85;65.54;97046.81;4166112;28;6521;-73
2022/10/31 13:23:11;;;;;;;;;;;;;;;18.83;65.24;97029.38;4167237;28;5843;-73
2022/10/31 13:25:40;;;;;;;;;;;;;;;18.84;65.45;97023.78;4164525;28;5924;-73
2022/10/31 13:27:49;;;;;;;;;;;;;;;18.84;65.37;97028.31;4168210;28;5928;-73
2022/10/31 13:30:02;;;;;;;;;;;;;;;18.86;65.21;97023.53;4165442;28;7421;-73
2022/10/31 13:32:09;;;;;;;;;;;;;;;18.87;65.13;97015.25;4170102;28;5748;-72
2022/10/31 13:34:22;;;;;;;;;;;;;;;18.89;65.26;97006.97;4167872;28;6561;-72
2022/10/31 13:36:35;;;;;;;;;;;;;;;18.92;65.08;97013.75;4167966;28;5765;-73
2022/10/31 13:38:46;;;;;;;;;;;;;;;18.93;65.08;97016.19;4166445;28;5733;-72
2022/10/31 13:40:56;;;;;;;;;;;;;;;18.94;64.94;97012.44;4163429;28;5915;-72
2022/10/31 13:43:07;;;;;;;;;;;;;;;18.97;64.67;97001.22;4167778;28;5880;-73
2022/10/31 13:45:14;;;;;;;;;;;;;;;18.98;64.68;97008.22;4167637;28;5805;-73
2022/10/31 13:47:25;;;;;;;;;;;;;;;18.99;64.39;97012.50;4158101;28;5765;-73
2022/10/31 13:49:39;;;;;;;;;;;;;;;18.98;64.16;97013.56;4174165;28;5842;-73
2022/10/31 13:51:42;;;;;;;;;;;;;;;18.99;64.34;97009.84;4168529;28;5721;-73
2022/10/31 13:53:57;;;;;;;;;;;;;;;19.00;64.14;96998.06;4165123;28;5832;-73
2022/10/31 13:56:05;;;;;;;;;;;;;;;18.99;64.16;97004.47;4172194;28;5756;-73
2022/10/31 13:58:26;;;;;;;;;;;;;;;19.00;64.15;97007.97;4169036;28;5734;-73
2022/10/31 14:00:34;;;;;;;;;;;;;;;18.98;64.16;97007.41;4162391;28;5734;-73
2022/10/31 14:02:47;;;;;;;;;;;;;;;18.98;64.16;97008.22;4176810;28;5851;-73
2022/10/31 14:04:53;;;;;;;;;;;;;;;18.98;64.05;96999.38;4171028;28;5806;-73
2022/10/31 14:07:07;;;;;;;;;;;;;;;18.98;63.91;97000.19;4165103;28;5948;-73
2022/10/31 14:09:30;;;;;;;;;;;;;;;19.00;63.87;96990.03;4169513;28;5745;-73
2022/10/31 14:11:33;;;;;;;;;;;;;;;19.02;63.66;96987.91;4172364;28;5831;-72
2022/10/31 14:13:45;;;;;;;;;;;;;;;19.03;64.00;97000.28;4164302;28;5732;-73
2022/10/31 14:15:55;;;;;;;;;;;;;;;19.03;63.49;97000.28;4164568;28;5846;-73
2022/10/31 14:18:01;;;;;;;;;;;;;;;19.07;63.73;97000.59;4161881;28;5868;-73
2022/10/31 14:20:40;;;;;;;;;;;;;;;19.10;63.81;97000.09;4158777;28;5915;-73
2022/10/31 14:22:43;;;;;;;;;;;;;;;19.11;63.61;97010.59;4160444;28;5778;-73
2022/10/31 14:24:46;;;;;;;;;;;;;;;19.11;63.37;97002.53;4164987;28;5733;-73
2022/10/31 14:26:54;;;;;;;;;;;;;;;19.11;63.61;97007.91;4163212;28;5823;-73
2022/10/31 14:29:00;;;;;;;;;;;;;;;19.11;63.41;97009.78;4166162;28;5816;-73
2022/10/31 14:31:31;;;;;;;;;;;;;;;19.10;63.29;97003.59;4160583;28;5839;-73
2022/10/31 14:33:35;;;;;;;;;;;;;;;19.09;63.64;97004.66;4165058;28;5874;-73
2022/10/31 14:35:52;;;;;;;;;;;;;;;19.09;63.52;97018.06;4165005;28;5766;-74
2022/10/31 14:38:26;;;;;;;;;;;;;;;19.09;63.38;97012.69;4166363;28;5903;-73
2022/10/31 14:40:42;;;;;;;;;;;;;;;19.08;63.25;97008.41;4158798;28;5907;-74
2022/10/31 14:43:20;;;;;;;;;;;;;;;19.09;62.96;97012.69;4166902;28;5907;-73
2022/10/31 14:45:35;;;;;;;;;;;;;;;19.09;63.31;97025.28;4101034;28;5850;-73
2022/10/31 14:47:49;;;;;;;;;;;;;;;19.07;63.07;97024.72;4094901;28;6037;-74
2022/10/31 14:50:14;;;;;;;;;;;;;;;19.07;62.98;97022.03;4096961;28;5858;-75
2022/10/31 14:52:20;;;;;;;;;;;;;;;19.07;62.92;97027.41;4091250;28;6646;-74
2022/10/31 14:54:29;;;;;;;;;;;;;;;19.07;62.83;97020.16;4094432;28;5871;-75
2022/10/31 14:56:35;;;;;;;;;;;;;;;19.07;62.84;97022.84;4100791;28;5888;-75
2022/10/31 14:58:42;;;;;;;;;;;;;;;19.09;62.90;97012.69;4098240;28;5994;-73
2022/10/31 15:00:47;;;;;;;;;;;;;;;19.08;63.02;97003.03;4096055;28;5921;-74
2022/10/31 15:02:53;;;;;;;;;;;;;;;19.09;62.53;97001.97;4099370;28;5943;-73
2022/10/31 15:04:58;;;;;;;;;;;;;;;19.09;62.86;97010.00;4095775;28;6176;-74
2022/10/31 15:07:07;;;;;;;;;;;;;;;19.08;62.59;97015.63;4097694;28;5991;-74
2022/10/31 15:09:23;;;;;;;;;;;;;;;19.09;62.62;97003.84;4101567;28;5842;-74
2022/10/31 15:11:27;;;;;;;;;;;;;;;19.08;62.20;96996.88;4097761;28;5937;-73
2022/10/31 15:13:30;;;;;;;;;;;;;;;19.07;62.33;97001.41;4097871;28;5950;-74
2022/10/31 15:15:34;;;;;;;;;;;;;;;19.07;62.45;97001.41;4100483;28;5982;-73
2022/10/31 15:17:45;;;;;;;;;;;;;;;19.07;62.54;96998.72;4094693;28;5319;-73
2022/10/31 15:19:48;;;;;;;;;;;;;;;19.09;62.28;97007.34;4096347;28;7830;-73
2022/10/31 15:21:53;;;;;;;;;;;;;;;19.07;62.57;97004.09;4142302;28;5744;-72
2022/10/31 15:23:58;;;;;;;;;;;;;;;19.08;62.44;96996.88;4163920;28;5804;-74
2022/10/31 15:26:02;;;;;;;;;;;;;;;19.08;62.55;96995.00;4157704;28;5923;-72
2022/10/31 15:28:14;;;;;;;;;;;;;;;19.07;62.49;96996.06;4165793;28;5796;-72
2022/10/31 15:30:22;;;;;;;;;;;;;;;19.07;62.23;97001.41;4161018;28;5934;-72
2022/10/31 15:32:27;;;;;;;;;;;;;;;19.06;62.35;96994.44;4162251;28;5939;-72
2022/10/31 15:34:36;;;;;;;;;;;;;;;19.05;62.55;97002.72;4162884;28;5821;-72
2022/10/31 15:36:40;;;;;;;;;;;;;;;19.05;62.43;97002.72;4161594;28;5808;-72
2022/10/31 15:38:43;;;;;;;;;;;;;;;19.04;62.82;97001.91;4168153;28;5860;-72
2022/10/31 15:40:54;;;;;;;;;;;;;;;19.03;62.60;97011.00;4173044;28;5828;-70
2022/10/31 15:43:00;;;;;;;;;;;;;;;19.03;62.57;97004.84;4166730;28;5827;-66
2022/10/31 15:45:16;;;;;;;;;;;;;;;19.03;62.59;96999.47;4162402;28;5273;-69
2022/10/31 15:47:21;;;;;;;;;;;;;;;19.00;62.56;96995.38;4166225;28;7737;-77
2022/10/31 15:49:36;;;;;;;;;;;;;;;19.00;62.74;96997.25;4174173;28;5976;-70
2022/10/31 15:51:39;;;;;;;;;;;;;;;18.99;62.88;97009.84;4161461;28;6435;-73
2022/10/31 15:53:46;;;;;;;;;;;;;;;18.98;62.73;97016.25;4161805;28;5847;-67
2022/10/31 15:55:52;;;;;;;;;;;;;;;18.98;62.98;97018.13;4157378;28;6558;-68
2022/10/31 15:57:59;;;;;;;;;;;;;;;18.97;62.77;97022.66;4162028;28;5754;-72
2022/10/31 16:00:02;;;;;;;;;;;;;;;18.96;62.78;97015.69;4158561;28;5959;-76
2022/10/31 16:02:12;;;;;;;;;;;;;;;18.97;62.75;97024.53;4164776;28;5733;-67
2022/10/31 16:04:24;;;;;;;;;;;;;;;18.94;62.94;97012.44;4158559;28;5752;-70
2022/10/31 16:06:28;;;;;;;;;;;;;;;18.92;63.06;97019.91;4168464;28;5860;-88
2022/10/31 16:08:36;;;;;;;;;;;;;;;18.90;62.80;97012.09;4167023;28;5836;-88
2022/10/31 16:10:38;;;;;;;;;;;;;;;18.87;62.90;97009.91;4171676;28;5733;-87
2022/10/31 16:12:45;;;;;;;;;;;;;;;18.87;62.91;97019.81;4171434;28;5742;-88
2022/10/31 16:14:48;;;;;;;;;;;;;;;18.87;63.36;97019.81;4171078;28;5883;-87
2022/10/31 16:16:53;;;;;;;;;;;;;;;18.85;63.17;97013.88;4172159;28;5736;-87
2022/10/31 16:18:57;;;;;;;;;;;;;;;18.85;63.59;97008.50;4170942;28;5758;-87
2022/10/31 16:21:00;;;;;;;;;;;;;;;18.84;63.18;97018.41;4171548;28;5988;-86
2022/10/31 16:23:04;;;;;;;;;;;;;;;18.83;63.41;97016.78;4170986;28;5839;-87
2022/10/31 16:25:12;;;;;;;;;;;;;;;18.83;63.33;97021.34;4169960;28;5903;-87